Time;durP1;ratioP1;P1;durP2;ratioP2;P2;SDS_P1;SDS_P2;PMS_P1;PMS_P2;Temp;Humidity;BMP_temperature;BMP_pressure;BME280_temperature;BME280_humidity;BME280_pressure;Samples;Min_cycle;Max_cycle;Signal;HPM_P1;HPM_P2
2021/08/30 00:01:58;;;;;;;1999.90;999.90;;;;;;;12.49;60.81;100961.22;5009857;28;96978;-76
2021/08/30 00:04:27;;;;;;;1999.90;999.90;;;;;;;12.51;60.70;100958.59;5008016;28;96885;-76
2021/08/30 00:06:55;;;;;;;1999.90;999.90;;;;;;;12.49;60.62;100963.00;5026109;28;98671;-76
2021/08/30 00:09:23;;;;;;;1999.90;999.90;;;;;;;12.49;60.70;100966.53;5009526;28;99199;-76
2021/08/30 00:11:51;;;;;;;1999.90;999.90;;;;;;;12.49;60.74;100965.69;5006239;28;96830;-75
2021/08/30 00:14:19;;;;;;;1999.90;999.90;;;;;;;12.49;60.76;100968.34;5008369;28;97386;-77
2021/08/30 00:16:47;;;;;;;1999.90;999.90;;;;;;;12.49;60.80;100979.03;4990772;28;99017;-76
2021/08/30 00:19:15;;;;;;;1999.90;999.90;;;;;;;12.48;60.64;100972.78;5008123;28;100413;-76
2021/08/30 00:21:44;;;;;;;1999.90;999.90;;;;;;;12.48;60.64;100971.88;5026003;28;96881;-76
2021/08/30 00:24:12;;;;;;;1999.90;999.90;;;;;;;12.47;60.75;100975.41;5007041;28;96861;-77
2021/08/30 00:26:40;;;;;;;1999.90;999.90;;;;;;;12.44;60.81;100972.69;5008497;28;99306;-77
2021/08/30 00:29:08;;;;;;;1999.90;999.90;;;;;;;12.45;60.64;100974.50;4990719;28;99219;-76
2021/08/30 00:31:36;;;;;;;1999.90;999.90;;;;;;;12.45;60.80;100966.50;5008684;28;97236;-77
2021/08/30 00:34:04;;;;;;;1999.90;999.90;;;;;;;12.45;60.67;100966.50;5009023;28;96917;-77
2021/08/30 00:36:31;;;;;;;1999.90;999.90;;;;;;;12.45;60.78;100963.81;5008306;28;100925;-76
2021/08/30 00:39:01;;;;;;;1999.90;999.90;;;;;;;12.45;60.63;100972.75;4991889;28;99583;-76
2021/08/30 00:41:29;;;;;;;1999.90;999.90;;;;;;;12.45;60.59;100966.50;5007013;28;97021;-77
2021/08/30 00:43:57;;;;;;;1999.90;999.90;;;;;;;12.44;60.59;100970.00;5010082;28;97374;-77
2021/08/30 00:46:25;;;;;;;1999.90;999.90;;;;;;;12.43;60.60;100970.91;5008737;28;97625;-77
2021/08/30 00:48:53;;;;;;;1999.90;999.90;;;;;;;12.42;60.55;100966.44;5007501;28;100843;-77
2021/08/30 00:51:21;;;;;;;1999.90;999.90;;;;;;;12.43;60.72;100970.91;5026763;28;96802;-77
2021/08/30 00:53:50;;;;;;;1999.90;999.90;;;;;;;12.42;60.67;100961.13;4992577;28;96971;-77
2021/08/30 00:56:19;;;;;;;1999.90;999.90;;;;;;;12.42;60.62;100966.44;5007342;28;97696;-77
2021/08/30 00:58:47;;;;;;;1999.90;999.90;;;;;;;12.42;60.67;100964.66;5026616;27;97723;-77
2021/08/30 01:01:15;;;;;;;1999.90;999.90;;;;;;;12.40;60.67;100962.84;5006549;28;96814;-78
2021/08/30 01:03:43;;;;;;;1999.90;999.90;;;;;;;12.40;60.69;100960.19;4991375;28;96919;-78
2021/08/30 01:06:17;;;;;;;1999.90;999.90;;;;;;;12.39;60.83;100966.38;5007530;28;99647;-78
2021/08/30 01:08:49;;;;;;;1999.90;999.90;;;;;;;12.41;60.64;100969.97;5009019;28;100893;-77
2021/08/30 01:11:21;;;;;;;1999.90;999.90;;;;;;;12.41;60.58;100976.22;5008448;28;96838;-78
2021/08/30 01:13:51;;;;;;;1999.90;999.90;;;;;;;12.42;60.47;100971.78;4993138;28;97610;-77
2021/08/30 01:16:20;;;;;;;1999.90;999.90;;;;;;;12.41;60.63;100972.66;4992586;28;99946;-76
2021/08/30 01:18:50;;;;;;;1999.90;999.90;;;;;;;12.40;60.62;100974.41;5008782;28;99633;-76
2021/08/30 01:21:19;;;;;;;1999.90;999.90;;;;;;;12.39;60.72;100969.06;5025800;27;96890;-78
2021/08/30 01:23:52;;;;;;;1999.90;999.90;;;;;;;12.37;60.76;100973.47;5027423;28;97022;-76
2021/08/30 01:26:22;;;;;;;1999.90;999.90;;;;;;;12.36;60.60;100971.69;5009217;28;99305;-77
2021/08/30 01:28:59;;;;;;;1999.90;999.90;;;;;;;12.36;60.76;100969.91;4991415;28;100911;-75
2021/08/30 01:31:32;;;;;;;1999.90;999.90;;;;;;;12.36;60.84;100961.00;5025057;27;96996;-75
2021/08/30 01:34:03;;;;;;;1999.90;999.90;;;;;;;12.37;60.74;100962.78;5025820;27;97135;-77
2021/08/30 01:36:32;;;;;;;1999.90;999.90;;;;;;;12.37;60.60;100955.69;5008657;28;100018;-76
2021/08/30 01:39:00;;;;;;;1999.90;999.90;;;;;;;12.38;60.70;100959.25;4991164;28;99334;-76
2021/08/30 01:41:29;;;;;;;1999.90;999.90;;;;;;;12.39;60.69;100955.72;5008803;28;96859;-75
2021/08/30 01:43:57;;;;;;;1999.90;999.90;;;;;;;12.40;60.73;100954.84;4984946;28;96924;-77
2021/08/30 01:46:26;;;;;;;1999.90;999.90;;;;;;;12.40;60.69;100952.19;5008305;28;99881;-76
2021/08/30 01:48:54;;;;;;;1999.90;999.90;;;;;;;12.42;60.66;100955.78;5007324;28;100303;-74
2021/08/30 01:51:25;;;;;;;1999.90;999.90;;;;;;;12.44;60.48;100959.34;5007027;28;96958;-75
2021/08/30 01:53:55;;;;;;;1999.90;999.90;;;;;;;12.44;60.74;100959.34;5002172;28;96814;-76
2021/08/30 01:56:26;;;;;;;1999.90;999.90;;;;;;;12.45;60.65;100950.47;4989810;28;99613;-76
2021/08/30 02:01:41;;;;;;;1999.90;999.90;;;;;;;12.45;60.45;100951.38;5007793;28;96628;-75
2021/08/30 02:04:09;;;;;;;1999.90;999.90;;;;;;;12.46;60.63;100952.25;5008129;28;96827;-75
2021/08/30 02:06:39;;;;;;;1999.90;999.90;;;;;;;12.44;60.66;100954.00;5006455;28;100600;-75
2021/08/30 02:09:07;;;;;;;1999.90;999.90;;;;;;;12.44;60.74;100948.66;5010195;28;99213;-75
2021/08/30 02:11:35;;;;;;;1999.90;999.90;;;;;;;12.43;60.63;100945.13;5009490;28;96944;-75
2021/08/30 02:14:07;;;;;;;1999.90;999.90;;;;;;;12.42;60.63;100945.97;5010006;28;97036;-76
2021/08/30 02:16:35;;;;;;;1999.90;999.90;;;;;;;12.42;60.71;100953.09;5027218;28;97852;-75
2021/08/30 02:19:09;;;;;;;1999.90;999.90;;;;;;;12.40;60.71;100953.06;5010374;28;100383;-76
2021/08/30 02:21:42;;;;;;;1999.90;999.90;;;;;;;12.41;60.67;100954.88;4991204;28;96865;-76
2021/08/30 02:24:15;;;;;;;1999.90;999.90;;;;;;;12.39;60.76;100953.94;5006121;28;97312;-76
2021/08/30 02:26:47;;;;;;;1999.90;999.90;;;;;;;12.44;60.58;100946.91;5009055;28;100588;-76
2021/08/30 02:29:18;;;;;;;1999.90;999.90;;;;;;;12.41;60.60;100940.63;4991024;28;100623;-76
2021/08/30 02:31:49;;;;;;;1999.90;999.90;;;;;;;12.41;60.69;100945.97;5008839;28;97063;-75
2021/08/30 02:34:18;;;;;;;1999.90;999.90;;;;;;;12.38;60.93;100959.25;5008933;28;96845;-76
2021/08/30 02:36:49;;;;;;;1999.90;999.90;;;;;;;12.35;60.85;100945.84;4991304;28;99225;-76
2021/08/30 02:39:17;;;;;;;1999.90;999.90;;;;;;;12.35;61.19;100951.19;5011295;28;99349;-76
2021/08/30 02:41:46;;;;;;;1999.90;999.90;;;;;;;12.35;61.02;100951.19;5009896;28;96859;-75
2021/08/30 02:44:14;;;;;;;1999.90;999.90;;;;;;;12.35;60.80;100944.09;5009480;28;96865;-76
2021/08/30 02:46:42;;;;;;;1999.90;999.90;;;;;;;12.38;60.97;100951.25;4991859;28;99438;-76
2021/08/30 02:49:10;;;;;;;1999.90;999.90;;;;;;;12.36;60.96;100950.31;5026869;28;98846;-76
2021/08/30 02:51:39;;;;;;;1999.90;999.90;;;;;;;12.37;61.09;100952.09;5027921;28;96671;-76
2021/08/30 02:54:09;;;;;;;1999.90;999.90;;;;;;;12.35;60.89;100948.50;5009838;28;96787;-76
2021/08/30 02:56:39;;;;;;;1999.90;999.90;;;;;;;12.36;61.01;100950.31;5009840;28;99414;-76
2021/08/30 02:59:07;;;;;;;1999.90;999.90;;;;;;;12.35;61.06;100951.19;5010135;28;97568;-75
2021/08/30 03:01:35;;;;;;;1999.90;999.90;;;;;;;12.34;60.98;100952.06;5010986;28;97045;-77
2021/08/30 03:04:04;;;;;;;1999.90;999.90;;;;;;;12.34;61.12;100958.31;5011085;28;97002;-75
2021/08/30 03:06:32;;;;;;;1999.90;999.90;;;;;;;12.33;61.17;100952.97;5008610;28;98888;-76
2021/08/30 03:09:00;;;;;;;1999.90;999.90;;;;;;;12.31;61.19;100950.22;5025593;28;100018;-75
2021/08/30 03:11:30;;;;;;;1999.90;999.90;;;;;;;12.28;61.22;100952.88;4991833;28;96781;-76
2021/08/30 03:13:59;;;;;;;1999.90;999.90;;;;;;;12.30;61.35;100958.22;5028619;28;97177;-77
2021/08/30 03:16:28;;;;;;;1999.90;999.90;;;;;;;12.30;61.33;100956.47;4994037;28;99612;-76
2021/08/30 03:18:58;;;;;;;1999.90;999.90;;;;;;;12.30;61.21;100955.56;4994593;28;99409;-77
2021/08/30 03:21:28;;;;;;;1999.90;999.90;;;;;;;12.28;61.32;100958.19;5023054;28;96882;-76
2021/08/30 03:23:56;;;;;;;1999.90;999.90;;;;;;;12.28;61.19;100954.63;5008621;28;96968;-76
2021/08/30 03:26:25;;;;;;;1999.90;999.90;;;;;;;12.27;61.43;100955.50;5012795;28;98687;-76
2021/08/30 03:28:55;;;;;;;1999.90;999.90;;;;;;;12.25;61.36;100963.50;5011352;28;99447;-77
2021/08/30 03:31:24;;;;;;;1999.90;999.90;;;;;;;12.25;61.52;100960.81;4995247;28;96844;-76
2021/08/30 03:33:52;;;;;;;1999.90;999.90;;;;;;;12.27;61.49;100960.84;5030098;28;96811;-77
2021/08/30 03:36:20;;;;;;;1999.90;999.90;;;;;;;12.27;61.27;100963.53;5010513;28;97716;-76
2021/08/30 03:38:48;;;;;;;1999.90;999.90;;;;;;;12.27;61.34;100959.09;5027452;28;98691;-77
2021/08/30 03:41:17;;;;;;;1999.90;999.90;;;;;;;12.27;61.48;100958.19;5008993;28;97505;-79
2021/08/30 03:43:46;;;;;;;1999.90;999.90;;;;;;;12.27;61.29;100968.84;5010395;28;97205;-76
2021/08/30 03:46:15;;;;;;;1999.90;999.90;;;;;;;12.27;61.34;100966.19;5009041;28;99415;-76
2021/08/30 03:48:44;;;;;;;1999.90;999.90;;;;;;;12.27;61.35;100971.53;5009341;28;99197;-76
2021/08/30 03:51:12;;;;;;;1999.90;999.90;;;;;;;12.28;61.59;100974.22;5008325;28;96996;-77
2021/08/30 03:53:42;;;;;;;1999.90;999.90;;;;;;;12.29;61.57;100970.66;5009921;28;96962;-77
2021/08/30 03:56:10;;;;;;;1999.90;999.90;;;;;;;12.30;61.45;100974.22;5027506;28;97673;-78
2021/08/30 03:58:39;;;;;;;1999.90;999.90;;;;;;;12.30;61.48;100971.56;5007347;28;99909;-77
2021/08/30 04:01:09;;;;;;;1999.90;999.90;;;;;;;12.28;61.41;100973.31;5006638;28;96796;-77
2021/08/30 04:03:40;;;;;;;1999.90;999.90;;;;;;;12.26;61.64;100969.72;4990107;28;96986;-78
2021/08/30 04:06:09;;;;;;;1999.90;999.90;;;;;;;12.26;61.59;100978.63;5024449;28;97686;-78
2021/08/30 04:08:37;;;;;;;1999.90;999.90;;;;;;;12.26;61.46;100970.63;5004398;28;99169;-77
2021/08/30 04:11:06;;;;;;;1999.90;999.90;;;;;;;12.27;61.56;100972.44;5009018;28;96849;-77
2021/08/30 04:13:34;;;;;;;1999.90;999.90;;;;;;;12.28;61.44;100975.97;5009060;28;96952;-77
2021/08/30 04:16:02;;;;;;;1999.90;999.90;;;;;;;12.27;61.34;100980.44;5001863;28;100933;-77
2021/08/30 04:18:30;;;;;;;1999.90;999.90;;;;;;;12.26;61.45;100983.97;5007344;28;99827;-77
2021/08/30 04:20:59;;;;;;;1999.90;999.90;;;;;;;12.27;61.41;100990.19;4991607;28;97257;-77
2021/08/30 04:23:30;;;;;;;1999.90;999.90;;;;;;;12.25;61.46;100991.94;4991974;28;97198;-77
2021/08/30 04:25:58;;;;;;;1999.90;999.90;;;;;;;12.24;61.49;100998.16;4991321;28;101198;-76
2021/08/30 04:28:25;;;;;;;1999.90;999.90;;;;;;;12.23;61.42;100996.34;5024741;27;97616;-78
2021/08/30 04:30:53;;;;;;;1999.90;999.90;;;;;;;12.23;61.46;101001.69;5007643;28;96841;-77
2021/08/30 04:33:22;;;;;;;1999.90;999.90;;;;;;;12.21;61.66;101000.75;5005792;27;96908;-77
2021/08/30 04:35:51;;;;;;;1999.90;999.90;;;;;;;12.21;61.41;101006.09;5004656;28;100685;-78
2021/08/30 04:38:20;;;;;;;1999.90;999.90;;;;;;;12.20;61.41;101006.97;4989821;28;101562;-77
2021/08/30 04:40:49;;;;;;;1999.90;999.90;;;;;;;12.18;61.47;101005.16;5009506;28;96977;-77
2021/08/30 04:43:17;;;;;;;1999.90;999.90;;;;;;;12.17;61.50;101011.38;5007530;28;96881;-76
2021/08/30 04:45:45;;;;;;;1999.90;999.90;;;;;;;12.14;61.49;101005.06;5008312;28;99635;-78
2021/08/30 04:48:13;;;;;;;1999.90;999.90;;;;;;;12.12;61.69;101002.38;4990250;28;100811;-78
2021/08/30 04:50:41;;;;;;;1999.90;999.90;;;;;;;12.13;61.56;101009.50;5025044;28;96856;-77
2021/08/30 04:53:09;;;;;;;1999.90;999.90;;;;;;;12.14;61.70;101008.59;5025661;28;96738;-79
2021/08/30 04:55:38;;;;;;;1999.90;999.90;;;;;;;12.12;61.53;101013.03;5006947;28;97907;-78
2021/08/30 04:58:09;;;;;;;1999.90;999.90;;;;;;;12.14;61.71;101007.72;4992017;28;99840;-78
2021/08/30 05:00:37;;;;;;;1999.90;999.90;;;;;;;12.13;61.53;101009.50;5022482;28;96934;-78
2021/08/30 05:03:05;;;;;;;1999.90;999.90;;;;;;;12.13;61.68;101013.91;5009937;28;96906;-77
2021/08/30 05:05:33;;;;;;;1999.90;999.90;;;;;;;12.13;61.52;101017.50;5025061;28;98778;-76
2021/08/30 05:08:01;;;;;;;1999.90;999.90;;;;;;;12.14;61.45;101016.59;4981858;28;101157;-78
2021/08/30 05:10:29;;;;;;;1999.90;999.90;;;;;;;12.14;61.48;101019.28;5007782;28;97066;-80
2021/08/30 05:12:58;;;;;;;1999.90;999.90;;;;;;;12.14;61.46;101019.28;5004429;28;97530;-78
2021/08/30 05:15:27;;;;;;;1999.90;999.90;;;;;;;12.14;61.49;101019.28;5023344;27;97695;-78
2021/08/30 05:17:55;;;;;;;1999.90;999.90;;;;;;;12.16;61.45;101017.53;5025408;28;97730;-79
2021/08/30 05:20:23;;;;;;;1999.90;999.90;;;;;;;12.15;61.43;101015.75;4994580;28;96873;-80
2021/08/30 05:22:51;;;;;;;1999.90;999.90;;;;;;;12.16;61.51;101025.53;5007239;28;96741;-79
2021/08/30 05:25:19;;;;;;;1999.90;999.90;;;;;;;12.17;61.39;101029.16;5025196;28;98002;-79
2021/08/30 05:27:48;;;;;;;1999.90;999.90;;;;;;;12.15;61.47;101022.84;5023408;28;96804;-79
2021/08/30 05:30:18;;;;;;;1999.90;999.90;;;;;;;12.17;61.45;101027.38;5024775;28;96806;-77
2021/08/30 05:32:46;;;;;;;1999.90;999.90;;;;;;;12.16;61.48;101027.34;5008150;28;96935;-79
2021/08/30 05:35:14;;;;;;;1999.90;999.90;;;;;;;12.13;61.61;101035.25;5005615;28;100527;-77
2021/08/30 05:37:42;;;;;;;1999.90;999.90;;;;;;;12.08;61.75;101032.53;5026317;27;96952;-77
2021/08/30 05:40:12;;;;;;;1999.90;999.90;;;;;;;12.08;61.78;101035.19;5023122;27;96817;-80
2021/08/30 05:42:40;;;;;;;1999.90;999.90;;;;;;;12.08;61.77;101040.53;5005803;28;96917;-78
2021/08/30 05:45:10;;;;;;;1999.90;999.90;;;;;;;12.09;61.67;101047.63;5006097;27;98499;-79
2021/08/30 05:47:41;;;;;;;1999.90;999.90;;;;;;;12.08;61.78;101043.19;5024098;28;96798;-78
2021/08/30 05:50:11;;;;;;;1999.90;999.90;;;;;;;12.07;61.62;101044.03;5011352;28;97138;-79
2021/08/30 05:52:39;;;;;;;1999.90;999.90;;;;;;;12.07;61.61;101048.50;5008743;28;97630;-79
2021/08/30 05:55:08;;;;;;;1999.90;999.90;;;;;;;12.08;61.55;101042.28;5028183;28;97531;-80
2021/08/30 05:57:36;;;;;;;1999.90;999.90;;;;;;;12.05;61.65;101051.13;5007978;28;99688;-77
2021/08/30 06:00:05;;;;;;;1999.90;999.90;;;;;;;12.03;61.78;101050.22;4991129;28;96825;-78
2021/08/30 06:02:33;;;;;;;1999.90;999.90;;;;;;;12.04;61.85;101056.41;5006447;28;97302;-78
2021/08/30 06:05:03;;;;;;;1999.90;999.90;;;;;;;12.03;61.65;101051.97;5001048;28;97871;-80
2021/08/30 06:07:31;;;;;;;1999.90;999.90;;;;;;;12.03;61.74;101058.22;5008284;28;98234;-77
2021/08/30 06:10:00;;;;;;;1999.90;999.90;;;;;;;12.03;61.77;101044.88;5008270;28;96771;-77
2021/08/30 06:12:29;;;;;;;1999.90;999.90;;;;;;;12.03;61.80;101046.63;5007660;28;96789;-80
2021/08/30 06:14:57;;;;;;;1999.90;999.90;;;;;;;12.01;61.64;101049.28;5026436;28;96934;-80
2021/08/30 06:17:25;;;;;;;1999.90;999.90;;;;;;;12.02;61.76;101050.16;5007794;28;96905;-80
2021/08/30 06:19:53;;;;;;;1999.90;999.90;;;;;;;12.00;61.64;101047.47;4993006;28;96973;-79
2021/08/30 06:22:23;;;;;;;1999.90;999.90;;;;;;;12.00;61.73;101052.78;4995420;28;97522;-79
2021/08/30 06:24:50;;;;;;;1999.90;999.90;;;;;;;12.00;61.70;101054.56;5009411;28;99491;-78
2021/08/30 06:27:20;;;;;;;1999.90;999.90;;;;;;;12.06;61.45;101052.94;5008770;28;99187;-78
2021/08/30 06:29:48;;;;;;;1999.90;999.90;;;;;;;12.06;61.55;101055.59;5007784;28;96949;-79
2021/08/30 06:32:17;;;;;;;1999.90;999.90;;;;;;;12.04;61.83;101057.34;5010177;28;96899;-78
2021/08/30 06:34:46;;;;;;;1999.90;999.90;;;;;;;12.05;61.53;101059.13;5025630;28;99779;-78
2021/08/30 06:37:14;;;;;;;1999.90;999.90;;;;;;;12.06;61.50;101062.69;5008142;28;98452;-79
2021/08/30 06:39:43;;;;;;;1999.90;999.90;;;;;;;12.04;61.54;101062.66;5008526;28;98031;-79
2021/08/30 06:42:11;;;;;;;1999.90;999.90;;;;;;;12.07;61.28;101068.06;5026653;28;96995;-79
2021/08/30 06:44:39;;;;;;;1999.90;999.90;;;;;;;12.09;61.45;101068.97;5009822;28;99097;-80
2021/08/30 06:47:07;;;;;;;1999.90;999.90;;;;;;;12.11;61.33;101064.56;5008953;28;97982;-79
2021/08/30 06:49:35;;;;;;;1999.90;999.90;;;;;;;12.11;61.36;101067.25;5023328;28;96926;-80
2021/08/30 06:52:05;;;;;;;1999.90;999.90;;;;;;;12.12;61.45;101066.41;5009669;28;97133;-79
2021/08/30 06:54:35;;;;;;;1999.90;999.90;;;;;;;12.14;61.24;101066.41;5008156;28;100986;-79
2021/08/30 06:57:05;;;;;;;1999.90;999.90;;;;;;;12.14;61.38;101072.63;5004897;28;99775;-79
2021/08/30 06:59:33;;;;;;;1999.90;999.90;;;;;;;12.15;61.12;101065.53;5027622;27;97051;-79
2021/08/30 07:02:01;;;;;;;1999.90;999.90;;;;;;;12.15;61.18;101069.09;4996576;28;96850;-80
2021/08/30 07:04:30;;;;;;;1999.90;999.90;;;;;;;12.16;61.19;101073.56;4993694;28;97213;-79
2021/08/30 07:06:58;;;;;;;1999.90;999.90;;;;;;;12.15;61.33;101061.09;4992175;28;99083;-79
2021/08/30 07:09:26;;;;;;;1999.90;999.90;;;;;;;12.14;61.31;101069.97;4992518;28;96844;-79
2021/08/30 07:11:54;;;;;;;1999.90;999.90;;;;;;;12.14;61.34;101069.97;5027544;28;96866;-80
2021/08/30 07:14:23;;;;;;;1999.90;999.90;;;;;;;12.15;61.26;101074.44;5011115;28;96792;-79
2021/08/30 07:16:51;;;;;;;1999.90;999.90;;;;;;;12.11;61.67;101077.00;4991414;28;96946;-79
2021/08/30 07:19:19;;;;;;;1999.90;999.90;;;;;;;12.09;61.61;101078.75;4993520;28;97808;-80
2021/08/30 07:21:47;;;;;;;1999.90;999.90;;;;;;;12.08;61.57;101080.53;4994455;28;97175;-79
2021/08/30 07:24:15;;;;;;;1999.90;999.90;;;;;;;12.09;61.54;101090.31;5011164;28;96855;-78
2021/08/30 07:26:43;;;;;;;1999.90;999.90;;;;;;;12.11;61.53;101080.59;4992216;27;98064;-80
2021/08/30 07:29:11;;;;;;;1999.90;999.90;;;;;;;12.11;61.58;101077.00;4994875;28;96856;-78
2021/08/30 07:31:41;;;;;;;1999.90;999.90;;;;;;;12.11;61.51;101077.91;5025297;27;97307;-79
2021/08/30 07:34:09;;;;;;;1999.90;999.90;;;;;;;12.12;61.69;101082.41;5008062;27;100728;-78
2021/08/30 07:36:38;;;;;;;1999.90;999.90;;;;;;;12.13;61.55;101086.84;5008135;28;96414;-79
2021/08/30 07:39:06;;;;;;;1999.90;999.90;;;;;;;12.16;61.53;101086.03;4995068;28;97443;-79
2021/08/30 07:41:35;;;;;;;1999.90;999.90;;;;;;;12.18;61.54;101084.31;5010571;28;97175;-78
2021/08/30 07:44:03;;;;;;;1999.90;999.90;;;;;;;12.20;61.52;101087.88;4993084;28;97784;-80
2021/08/30 07:46:31;;;;;;;1999.90;999.90;;;;;;;12.21;61.54;101087.03;4992893;28;99334;-78
2021/08/30 07:49:01;;;;;;;1999.90;999.90;;;;;;;12.54;61.07;101090.34;5026611;28;96876;-78
2021/08/30 07:51:29;;;;;;;1999.90;999.90;;;;;;;12.40;61.38;101089.16;4990090;28;96926;-78
2021/08/30 07:53:58;;;;;;;1999.90;999.90;;;;;;;12.38;61.44;101092.69;4989707;28;99790;-79
2021/08/30 07:56:25;;;;;;;1999.90;999.90;;;;;;;12.40;61.45;101088.28;4988674;28;99394;-78
2021/08/30 07:58:54;;;;;;;1999.90;999.90;;;;;;;12.69;60.88;101097.72;5005827;28;97451;-78
2021/08/30 08:01:22;;;;;;;1999.90;999.90;;;;;;;12.85;60.69;101095.34;4989138;27;96898;-78
2021/08/30 08:03:50;;;;;;;1999.90;999.90;;;;;;;12.67;60.75;101100.38;5010613;28;99439;-77
2021/08/30 08:06:20;;;;;;;1999.90;999.90;;;;;;;12.62;61.18;101106.50;4989959;28;97310;-78
2021/08/30 08:08:49;;;;;;;1999.90;999.90;;;;;;;12.58;61.29;101113.56;4990218;28;96934;-79
2021/08/30 08:11:17;;;;;;;1999.90;999.90;;;;;;;12.50;61.56;101112.50;5011678;28;97260;-79
2021/08/30 08:13:45;;;;;;;1999.90;999.90;;;;;;;12.50;61.49;101112.50;4995849;28;100824;-78
2021/08/30 08:16:13;;;;;;;1999.90;999.90;;;;;;;12.48;61.26;101110.66;4995243;28;101451;-78
2021/08/30 08:18:41;;;;;;;1999.90;999.90;;;;;;;12.47;61.50;101114.22;5011393;28;96836;-77
2021/08/30 08:21:10;;;;;;;1999.90;999.90;;;;;;;12.45;61.52;101121.31;5013725;28;96839;-79
2021/08/30 08:23:39;;;;;;;1999.90;999.90;;;;;;;12.44;61.40;101120.38;4996769;28;99396;-77
2021/08/30 08:26:07;;;;;;;1999.90;999.90;;;;;;;12.44;61.54;101123.06;5008453;28;96922;-78
2021/08/30 08:28:35;;;;;;;1999.90;999.90;;;;;;;12.74;60.95;101117.38;4990229;28;97526;-78
2021/08/30 08:31:03;;;;;;;1999.90;999.90;;;;;;;12.55;61.29;101128.59;5005048;28;98088;-77
2021/08/30 08:33:32;;;;;;;1999.90;999.90;;;;;;;12.51;61.43;101129.44;4980612;28;98524;-78
2021/08/30 08:36:00;;;;;;;1999.90;999.90;;;;;;;12.49;61.57;101137.38;4988893;28;99446;-74
2021/08/30 08:38:28;;;;;;;1999.90;999.90;;;;;;;12.48;61.64;101137.34;5006353;28;97360;-77
2021/08/30 08:40:57;;;;;;;1999.90;999.90;;;;;;;12.48;61.40;101132.03;5006880;28;96935;-76
2021/08/30 08:43:25;;;;;;;1999.90;999.90;;;;;;;12.46;61.38;101131.09;5007201;28;99679;-77
2021/08/30 08:45:54;;;;;;;1999.90;999.90;;;;;;;12.45;61.44;101137.31;5006669;28;97995;-77
2021/08/30 08:48:25;;;;;;;1999.90;999.90;;;;;;;12.45;61.37;101142.66;5022393;27;96869;-78
2021/08/30 08:50:57;;;;;;;1999.90;999.90;;;;;;;12.41;61.57;101136.34;5009118;28;96992;-78
2021/08/30 08:53:26;;;;;;;1999.90;999.90;;;;;;;12.38;61.55;101144.31;4985740;28;97002;-77
2021/08/30 08:55:53;;;;;;;1999.90;999.90;;;;;;;12.37;61.65;101142.50;5004998;27;98705;-77
2021/08/30 08:58:23;;;;;;;1999.90;999.90;;;;;;;12.35;61.49;101146.00;4987326;28;97580;-78
2021/08/30 09:01:03;;;;;;;1999.90;999.90;;;;;;;12.31;61.56;101133.50;5005786;27;97355;-79
2021/08/30 09:03:31;;;;;;;1999.90;999.90;;;;;;;12.31;61.69;101145.03;5004588;28;97598;-78
2021/08/30 09:06:04;;;;;;;1999.90;999.90;;;;;;;12.31;61.67;101149.50;4985098;28;99938;-79
2021/08/30 09:08:35;;;;;;;1999.90;999.90;;;;;;;12.31;61.83;101146.84;5004418;28;96988;-77
2021/08/30 09:11:03;;;;;;;1999.90;999.90;;;;;;;12.62;61.18;101147.41;4988019;28;97221;-78
2021/08/30 09:13:33;;;;;;;1999.90;999.90;;;;;;;12.45;61.46;101153.31;5022523;27;99233;-78
2021/08/30 09:16:01;;;;;;;1999.90;999.90;;;;;;;12.40;61.77;101152.34;5008357;28;100022;-79
2021/08/30 09:18:31;;;;;;;1999.90;999.90;;;;;;;12.38;61.92;101156.75;5026437;27;97572;-77
2021/08/30 09:21:10;;;;;;;1999.90;999.90;;;;;;;12.34;61.91;101154.88;4989672;28;96881;-78
2021/08/30 09:23:39;;;;;;;1999.90;999.90;;;;;;;12.36;61.98;101153.16;5026466;27;100645;-79
2021/08/30 09:26:08;;;;;;;1999.90;999.90;;;;;;;12.36;61.76;101153.16;5008237;28;97881;-78
2021/08/30 09:28:38;;;;;;;1999.90;999.90;;;;;;;12.33;61.74;101153.09;5009043;28;96724;-78
2021/08/30 09:31:06;;;;;;;1999.90;999.90;;;;;;;12.33;61.82;101158.44;5010771;28;96824;-78
2021/08/30 09:33:35;;;;;;;1999.90;999.90;;;;;;;12.32;61.82;101149.53;5025308;27;97624;-77
2021/08/30 09:36:04;;;;;;;1999.90;999.90;;;;;;;12.35;61.77;101156.66;5005272;28;97412;-79
2021/08/30 09:38:37;;;;;;;1999.90;999.90;;;;;;;12.33;61.71;101153.97;5002647;28;96817;-80
2021/08/30 09:41:06;;;;;;;1999.90;999.90;;;;;;;12.34;61.80;101152.22;5029771;27;96902;-79
2021/08/30 09:43:36;;;;;;;1999.90;999.90;;;;;;;12.34;61.66;101157.56;5008888;28;98640;-78
2021/08/30 09:46:07;;;;;;;1999.90;999.90;;;;;;;12.37;61.93;101157.59;5001633;28;99990;-79
2021/08/30 09:48:36;;;;;;;1999.90;999.90;;;;;;;12.37;61.81;101155.84;5008825;28;97400;-80
2021/08/30 09:51:06;;;;;;;1999.90;999.90;;;;;;;12.39;61.56;101164.78;5012430;28;96852;-79
2021/08/30 09:53:35;;;;;;;1999.90;999.90;;;;;;;12.40;61.63;101163.03;5021950;27;97571;-79
2021/08/30 09:56:03;;;;;;;1999.90;999.90;;;;;;;12.35;61.95;101156.66;5002144;28;99687;-78
2021/08/30 09:58:31;;;;;;;1999.90;999.90;;;;;;;12.34;61.99;101155.78;4989602;27;97055;-80
2021/08/30 10:01:02;;;;;;;1999.90;999.90;;;;;;;12.33;61.79;101163.78;5005555;28;96854;-78
2021/08/30 10:03:40;;;;;;;1999.90;999.90;;;;;;;12.35;61.83;101165.59;5010322;27;97878;-79
2021/08/30 10:06:10;;;;;;;1999.90;999.90;;;;;;;12.37;61.86;101160.28;5029146;27;97816;-80
2021/08/30 10:08:48;;;;;;;1999.90;999.90;;;;;;;12.41;61.61;101156.81;5007077;28;96925;-79
2021/08/30 10:11:34;;;;;;;1999.90;999.90;;;;;;;12.42;61.80;101158.63;5026378;28;98680;-81
2021/08/30 10:14:12;;;;;;;1999.90;999.90;;;;;;;12.44;61.86;101156.84;4996083;28;99237;-81
2021/08/30 10:16:42;;;;;;;1999.90;999.90;;;;;;;12.45;61.80;101153.31;5011065;28;101529;-80
2021/08/30 10:19:11;;;;;;;1999.90;999.90;;;;;;;12.46;61.59;101147.09;5011607;28;97389;-80
2021/08/30 10:21:44;;;;;;;1999.90;999.90;;;;;;;12.46;61.66;101145.34;5010807;28;96908;-79
2021/08/30 10:24:14;;;;;;;1999.90;999.90;;;;;;;12.49;61.72;101152.53;5026800;27;97746;-80
2021/08/30 10:26:43;;;;;;;1999.90;999.90;;;;;;;12.50;61.65;101163.22;4995625;28;96884;-80
2021/08/30 10:29:12;;;;;;;1999.90;999.90;;;;;;;12.50;61.61;101155.22;5010562;28;97295;-79
2021/08/30 10:31:51;;;;;;;1999.90;999.90;;;;;;;12.50;61.63;101159.66;4994537;28;97014;-77
2021/08/30 10:34:26;;;;;;;1999.90;999.90;;;;;;;12.50;61.47;101155.22;4996533;28;96856;-79
2021/08/30 10:36:55;;;;;;;1999.90;999.90;;;;;;;12.51;61.47;101164.13;5011672;28;97688;-77
2021/08/30 10:39:24;;;;;;;1999.90;999.90;;;;;;;12.53;61.63;101152.59;5029402;28;97185;-80
2021/08/30 10:41:52;;;;;;;1999.90;999.90;;;;;;;12.56;61.50;101151.75;5010669;28;97311;-77
2021/08/30 10:44:22;;;;;;;1999.90;999.90;;;;;;;12.57;61.60;101153.53;4996118;28;100027;-78
2021/08/30 10:46:54;;;;;;;1999.90;999.90;;;;;;;12.58;61.44;101150.03;5011597;28;97839;-77
2021/08/30 10:49:28;;;;;;;1999.90;999.90;;;;;;;12.61;61.30;101150.97;5030697;27;97163;-78
2021/08/30 10:52:05;;;;;;;1999.90;999.90;;;;;;;12.65;61.39;101157.28;5017753;28;96953;-79
2021/08/30 10:54:33;;;;;;;1999.90;999.90;;;;;;;12.67;61.27;101156.44;5014694;28;97697;-79
2021/08/30 10:57:03;;;;;;;1999.90;999.90;;;;;;;12.71;61.12;101155.59;5006499;28;100323;-79
2021/08/30 10:59:32;;;;;;;1999.90;999.90;;;;;;;12.73;61.08;101159.19;5040951;28;97470;-79